Time;durP1;ratioP1;P1;durP2;ratioP2;P2;SDS_P1;SDS_P2;PMS_P1;PMS_P2;Temp;Humidity;BMP_temperature;BMP_pressure;BME280_temperature;BME280_humidity;BME280_pressure;Samples;Min_cycle;Max_cycle;Signal;HPM_P1;HPM_P2
2022/06/07 00:02:14;;;;;;;1.50;0.60;;;13.80;99.90;;;;;;5020246;28;20033;-66
2022/06/07 00:04:42;;;;;;;3.28;0.43;;;13.90;99.90;;;;;;5038106;28;20344;-66
2022/06/07 00:07:10;;;;;;;2.70;0.20;;;14.10;99.90;;;;;;5031648;28;20064;-66
2022/06/07 00:09:38;;;;;;;0.80;0.20;;;13.90;99.60;;;;;;5037300;28;20025;-67
2022/06/07 00:12:06;;;;;;;2.72;0.45;;;14.00;99.30;;;;;;5022574;28;20030;-66
2022/06/07 00:14:34;;;;;;;0.43;0.20;;;13.90;99.30;;;;;;5022512;28;20018;-66
2022/06/07 00:17:05;;;;;;;1.42;0.10;;;14.00;99.20;;;;;;5015191;28;20022;-66
2022/06/07 00:19:33;;;;;;;2.20;0.10;;;13.90;99.20;;;;;;5022480;28;20437;-65
2022/06/07 00:22:00;;;;;;;1.02;0.20;;;14.00;99.70;;;;;;5018099;28;20041;-64
2022/06/07 00:24:28;;;;;;;1.67;0.20;;;14.10;99.60;;;;;;5014765;28;20021;-63
2022/06/07 00:26:55;;;;;;;1.70;0.20;;;14.10;99.20;;;;;;5026984;28;20132;-63
2022/06/07 00:29:25;;;;;;;3.15;0.30;;;13.90;99.20;;;;;;5037344;28;20079;-63
2022/06/07 00:31:52;;;;;;;1.17;0.17;;;14.00;99.40;;;;;;5036507;28;20018;-65
2022/06/07 00:34:20;;;;;;;2.50;0.20;;;14.10;99.30;;;;;;5036215;28;20026;-65
2022/06/07 00:36:47;;;;;;;1.85;0.28;;;14.10;99.10;;;;;;5032888;28;20017;-65
2022/06/07 00:39:14;;;;;;;1.88;0.10;;;14.10;99.20;;;;;;5037532;28;20040;-65
2022/06/07 00:41:42;;;;;;;0.98;0.10;;;14.20;99.30;;;;;;5029465;28;20030;-65
2022/06/07 00:44:35;;;;;;;2.42;0.28;;;14.20;99.00;;;;;;5028148;28;20053;-65
2022/06/07 00:47:12;;;;;;;1.05;0.20;;;14.30;98.90;;;;;;5046359;28;20025;-65
2022/06/07 00:50:05;;;;;;;1.00;0.10;;;14.50;99.40;;;;;;5039128;28;20022;-65
2022/06/07 00:52:35;;;;;;;1.55;0.10;;;14.50;98.70;;;;;;5034784;28;20039;-66
2022/06/07 00:55:06;;;;;;;2.72;0.20;;;14.60;98.50;;;;;;5025637;28;20106;-65
2022/06/07 00:57:35;;;;;;;0.50;0.00;;;14.60;98.40;;;;;;5032038;28;20072;-65
2022/06/07 01:00:06;;;;;;;1.20;0.10;;;14.60;98.70;;;;;;5027466;28;20029;-63
2022/06/07 01:02:33;;;;;;;3.40;0.30;;;14.70;98.80;;;;;;5029712;28;20040;-63
2022/06/07 01:05:01;;;;;;;1.20;0.10;;;14.80;98.20;;;;;;5021977;28;20033;-63
2022/06/07 01:13:00;;;;;;;1.30;0.10;;;15.00;97.90;;;;;;5032679;28;20025;-66
2022/06/07 01:15:27;;;;;;;0.88;0.20;;;15.10;98.30;;;;;;5026572;28;20033;-66
2022/06/07 01:17:54;;;;;;;0.80;0.10;;;15.00;97.30;;;;;;5031386;28;20046;-66
2022/06/07 01:20:22;;;;;;;0.52;0.20;;;15.10;97.50;;;;;;5021180;28;20033;-65
2022/06/07 01:22:49;;;;;;;1.98;0.10;;;15.20;97.50;;;;;;5025967;28;20095;-65
2022/06/07 01:25:16;;;;;;;0.77;0.10;;;15.20;97.10;;;;;;5034152;28;20021;-66
2022/06/07 01:27:44;;;;;;;1.02;0.30;;;15.30;97.40;;;;;;5027746;28;20053;-66
2022/06/07 01:30:11;;;;;;;1.58;0.50;;;15.40;98.50;;;;;;5053118;28;20387;-66
2022/06/07 01:32:39;;;;;;;1.27;0.20;;;15.50;98.20;;;;;;5025820;28;20497;-66
2022/06/07 01:35:08;;;;;;;0.40;0.08;;;15.20;97.30;;;;;;5022936;28;20026;-67
2022/06/07 01:37:35;;;;;;;0.60;0.10;;;15.30;97.00;;;;;;5041134;28;20144;-65
2022/06/07 01:42:48;;;;;;;1.17;0.20;;;15.10;96.40;;;;;;5035578;28;20053;-66
2022/06/07 01:45:16;;;;;;;0.43;0.10;;;15.20;96.80;;;;;;5037657;28;20040;-66
2022/06/07 01:47:46;;;;;;;0.20;0.10;;;15.40;96.20;;;;;;5028971;28;20053;-66
2022/06/07 01:50:13;;;;;;;0.20;0.10;;;15.50;95.90;;;;;;5024298;28;20076;-67
2022/06/07 01:52:40;;;;;;;1.27;0.00;;;15.50;95.80;;;;;;5031105;28;20026;-64
2022/06/07 01:55:09;;;;;;;0.82;0.00;;;15.50;95.70;;;;;;5038214;28;20081;-65
2022/06/07 01:57:36;;;;;;;0.17;0.00;;;15.50;95.50;;;;;;5031181;28;20010;-65
2022/06/07 02:00:05;;;;;;;0.22;0.00;;;15.50;95.80;;;;;;5051689;28;20033;-65
2022/06/07 02:02:33;;;;;;;1.23;0.00;;;15.70;94.90;;;;;;5036694;28;20042;-65
2022/06/07 02:05:00;;;;;;;1.13;0.10;;;15.60;95.00;;;;;;5033241;28;20025;-65
2022/06/07 02:07:31;;;;;;;0.15;0.00;;;15.70;95.30;;;;;;5041391;28;20049;-65
2022/06/07 02:09:58;;;;;;;0.45;0.10;;;15.90;95.40;;;;;;5038865;28;20025;-66
2022/06/07 02:12:25;;;;;;;0.00;0.00;;;15.90;94.90;;;;;;5034075;28;20034;-65
2022/06/07 02:14:52;;;;;;;1.85;0.10;;;15.90;94.50;;;;;;5036769;28;20021;-66
2022/06/07 02:17:20;;;;;;;0.13;0.00;;;16.10;94.20;;;;;;5041579;28;20001;-66
2022/06/07 02:19:47;;;;;;;0.98;0.00;;;16.10;94.80;;;;;;5036378;28;20782;-65
2022/06/07 02:22:14;;;;;;;0.30;0.20;;;16.30;94.50;;;;;;5030980;28;20030;-65
2022/06/07 02:24:41;;;;;;;1.65;0.00;;;16.10;93.80;;;;;;5030572;28;20054;-65
2022/06/07 02:27:16;;;;;;;0.30;0.00;;;15.80;94.30;;;;;;5034385;28;20077;-65
2022/06/07 02:29:50;;;;;;;0.85;0.40;;;15.50;94.50;;;;;;5036213;28;20025;-66
2022/06/07 02:32:29;;;;;;;0.85;0.03;;;15.70;94.90;;;;;;5037826;28;20009;-65
2022/06/07 02:34:59;;;;;;;0.43;0.10;;;16.10;94.30;;;;;;5033635;28;20026;-65
2022/06/07 02:37:28;;;;;;;0.15;0.05;;;16.40;94.30;;;;;;5043144;28;20041;-66
2022/06/07 02:39:57;;;;;;;0.88;0.20;;;16.40;93.70;;;;;;5049003;28;20080;-65
2022/06/07 02:42:29;;;;;;;0.40;0.03;;;16.60;94.20;;;;;;5033501;28;20048;-65
2022/06/07 02:44:57;;;;;;;0.57;0.00;;;16.60;93.40;;;;;;5027363;28;20478;-65
2022/06/07 02:47:25;;;;;;;1.92;0.10;;;16.60;93.10;;;;;;5027487;28;20015;-65
2022/06/07 02:49:53;;;;;;;0.47;0.20;;;16.50;93.60;;;;;;5029964;28;20037;-64
2022/06/07 02:52:21;;;;;;;3.63;0.10;;;16.60;93.50;;;;;;5037929;28;20025;-65
2022/06/07 02:54:49;;;;;;;1.27;0.10;;;16.80;93.50;;;;;;5045617;28;20061;-65
2022/06/07 02:57:16;;;;;;;2.03;0.08;;;16.60;93.30;;;;;;5049100;28;20045;-65
2022/06/07 02:59:43;;;;;;;0.55;0.10;;;16.70;93.20;;;;;;5037958;28;20041;-65
2022/06/07 03:02:11;;;;;;;0.98;0.03;;;16.50;93.00;;;;;;5058906;28;20018;-65
2022/06/07 03:04:38;;;;;;;1.88;0.43;;;16.50;93.40;;;;;;5035478;28;20034;-64
2022/06/07 03:07:07;;;;;;;1.95;0.03;;;16.30;93.30;;;;;;5039564;28;20033;-65
2022/06/07 03:09:34;;;;;;;0.93;0.00;;;16.30;93.10;;;;;;5033445;28;20080;-64
2022/06/07 03:12:02;;;;;;;0.22;0.00;;;16.10;92.80;;;;;;5031639;28;20029;-65
2022/06/07 03:14:29;;;;;;;1.45;0.00;;;16.20;92.70;;;;;;5053397;28;20021;-65
2022/06/07 03:16:57;;;;;;;0.95;0.10;;;16.30;93.10;;;;;;5047314;28;20077;-65
2022/06/07 03:19:24;;;;;;;0.25;0.08;;;16.40;93.60;;;;;;5057610;28;20056;-64
2022/06/07 03:21:52;;;;;;;0.00;0.00;;;16.30;92.90;;;;;;5055246;28;20062;-65
2022/06/07 03:24:19;;;;;;;4.72;0.20;;;16.20;92.70;;;;;;5060684;28;20029;-64
2022/06/07 03:26:49;;;;;;;0.32;0.10;;;16.30;93.20;;;;;;5050254;28;20028;-64
2022/06/07 03:29:16;;;;;;;0.63;0.10;;;16.40;92.30;;;;;;5048044;28;20033;-64
2022/06/07 03:31:46;;;;;;;3.95;0.10;;;16.20;92.60;;;;;;5044416;28;20014;-63
2022/06/07 03:34:14;;;;;;;0.90;0.10;;;16.40;92.90;;;;;;5053304;28;20018;-64
2022/06/07 03:36:41;;;;;;;2.03;0.05;;;16.30;92.40;;;;;;5051472;28;20040;-65
2022/06/07 03:39:10;;;;;;;0.40;0.10;;;16.20;92.10;;;;;;5040102;28;20060;-65
2022/06/07 03:41:38;;;;;;;5.60;0.47;;;15.90;92.30;;;;;;5043753;28;20026;-65
2022/06/07 03:44:06;;;;;;;3.03;1.02;;;15.90;92.50;;;;;;5054775;28;20059;-65
2022/06/07 03:46:33;;;;;;;0.30;0.10;;;16.00;92.60;;;;;;5046738;28;20034;-66
2022/06/07 03:49:02;;;;;;;0.08;0.05;;;16.10;92.80;;;;;;5063395;28;20029;-65
2022/06/07 03:51:31;;;;;;;0.22;0.10;;;16.20;92.50;;;;;;5057275;28;20049;-65
2022/06/07 03:53:59;;;;;;;0.38;0.22;;;16.10;92.60;;;;;;5049192;28;20129;-65
2022/06/07 03:56:27;;;;;;;0.65;0.10;;;16.30;93.10;;;;;;5056273;28;20018;-65
2022/06/07 03:58:55;;;;;;;1.17;0.10;;;16.30;93.60;;;;;;5040351;28;20089;-66
2022/06/07 04:01:24;;;;;;;2.10;0.10;;;16.20;93.40;;;;;;5051100;28;20239;-66
2022/06/07 04:03:54;;;;;;;0.20;0.00;;;16.20;93.00;;;;;;5054507;28;20037;-64
2022/06/07 04:06:37;;;;;;;4.97;0.38;;;16.10;93.30;;;;;;5061082;28;20037;-65
2022/06/07 04:09:06;;;;;;;1.35;0.10;;;15.90;93.50;;;;;;5047457;28;20109;-64
2022/06/07 04:11:34;;;;;;;1.38;0.05;;;15.80;93.30;;;;;;5037926;28;20098;-65
2022/06/07 04:14:01;;;;;;;1.20;0.00;;;15.80;93.50;;;;;;5056441;28;20085;-64
2022/06/07 04:16:30;;;;;;;1.70;0.20;;;15.80;93.60;;;;;;5046048;28;20018;-65
2022/06/07 04:18:58;;;;;;;3.40;0.20;;;15.80;93.80;;;;;;5050277;28;20034;-64
2022/06/07 04:21:26;;;;;;;0.38;0.10;;;15.90;93.80;;;;;;5045306;28;20034;-65
2022/06/07 04:23:54;;;;;;;0.98;0.20;;;15.90;93.90;;;;;;5044383;28;20033;-65
2022/06/07 04:26:25;;;;;;;0.65;0.10;;;15.90;93.40;;;;;;5048633;28;20041;-64
2022/06/07 04:28:53;;;;;;;1.67;0.57;;;15.80;93.80;;;;;;5053165;28;20072;-65
2022/06/07 04:31:23;;;;;;;1.70;0.10;;;15.70;93.70;;;;;;5054219;28;20036;-64
2022/06/07 04:33:50;;;;;;;1.38;0.60;;;15.70;93.80;;;;;;5046435;28;20037;-64
2022/06/07 04:36:21;;;;;;;3.30;0.22;;;15.80;94.00;;;;;;5044256;28;20033;-64
2022/06/07 04:38:50;;;;;;;2.45;0.15;;;15.90;93.90;;;;;;5045165;28;20021;-65
2022/06/07 04:41:19;;;;;;;0.20;0.03;;;15.90;94.30;;;;;;5042517;28;20045;-64
2022/06/07 04:43:51;;;;;;;1.63;0.10;;;15.90;94.80;;;;;;5048882;28;20012;-64
2022/06/07 04:46:20;;;;;;;1.15;0.05;;;15.90;95.40;;;;;;5043103;28;20026;-64
2022/06/07 04:48:49;;;;;;;1.23;0.15;;;15.90;95.50;;;;;;5046946;28;20057;-65
2022/06/07 04:51:20;;;;;;;1.55;0.10;;;15.90;95.80;;;;;;5042588;28;20026;-64
2022/06/07 04:53:49;;;;;;;1.40;0.10;;;15.90;95.40;;;;;;5074821;28;20064;-65
2022/06/07 04:56:21;;;;;;;1.52;0.00;;;15.90;94.80;;;;;;5053444;28;20030;-64
2022/06/07 04:58:49;;;;;;;1.17;0.10;;;15.80;94.50;;;;;;5046061;28;20030;-64
2022/06/07 05:01:19;;;;;;;0.30;0.10;;;15.80;94.40;;;;;;5052272;28;20128;-64
2022/06/07 05:03:48;;;;;;;2.35;0.10;;;15.70;94.10;;;;;;5029484;28;20026;-64
2022/06/07 05:06:23;;;;;;;1.13;0.00;;;15.60;94.10;;;;;;5027927;28;20030;-64
2022/06/07 05:08:54;;;;;;;0.60;0.03;;;15.60;94.30;;;;;;5063464;28;20025;-65
2022/06/07 05:11:22;;;;;;;0.80;0.30;;;15.40;94.70;;;;;;5054979;28;20030;-64
2022/06/07 05:13:52;;;;;;;0.60;0.10;;;15.40;94.70;;;;;;5042797;28;20022;-64
2022/06/07 05:16:20;;;;;;;0.20;0.10;;;15.50;95.40;;;;;;5048082;28;20053;-64
2022/06/07 05:18:52;;;;;;;1.00;0.10;;;15.50;95.40;;;;;;5066454;28;20051;-64
2022/06/07 05:21:21;;;;;;;1.83;0.20;;;15.30;95.50;;;;;;5042766;28;20046;-65
2022/06/07 05:23:49;;;;;;;1.65;0.10;;;15.40;95.60;;;;;;5039774;28;20018;-64
2022/06/07 05:26:33;;;;;;;1.10;0.10;;;15.40;95.30;;;;;;5037973;28;20037;-64
2022/06/07 05:29:00;;;;;;;0.30;0.03;;;15.40;94.70;;;;;;5035084;28;20026;-65
2022/06/07 05:31:28;;;;;;;0.50;0.20;;;15.30;94.60;;;;;;5039421;28;20308;-64
2022/06/07 05:33:56;;;;;;;0.40;0.20;;;15.20;95.00;;;;;;5033272;28;20518;-64
2022/06/07 05:36:24;;;;;;;0.20;0.20;;;15.20;94.70;;;;;;5044361;28;20017;-64
2022/06/07 05:38:51;;;;;;;0.82;0.20;;;15.20;94.90;;;;;;5067389;28;20354;-64
2022/06/07 05:41:23;;;;;;;0.68;0.20;;;15.10;94.60;;;;;;5061564;28;20064;-64
2022/06/07 05:43:50;;;;;;;1.80;0.10;;;15.20;95.00;;;;;;5044788;28;20014;-65
2022/06/07 05:46:18;;;;;;;2.28;0.20;;;15.20;95.00;;;;;;5048146;28;20010;-65
2022/06/07 05:48:45;;;;;;;0.82;0.20;;;15.10;95.00;;;;;;5058636;28;20025;-64
2022/06/07 05:51:13;;;;;;;0.55;0.13;;;15.10;95.00;;;;;;5054151;28;20029;-64
2022/06/07 05:53:41;;;;;;;0.35;0.03;;;15.00;95.00;;;;;;5055206;28;20317;-64
2022/06/07 05:56:10;;;;;;;0.50;0.10;;;15.00;95.40;;;;;;5047941;28;20026;-64
2022/06/07 05:58:38;;;;;;;0.25;0.10;;;15.00;95.40;;;;;;5046194;28;20092;-65
2022/06/07 06:01:07;;;;;;;0.52;0.10;;;14.90;95.50;;;;;;5045599;28;20045;-64
2022/06/07 06:03:36;;;;;;;0.52;0.10;;;14.90;95.60;;;;;;5061896;28;20017;-64
2022/06/07 06:06:06;;;;;;;1.00;0.28;;;14.80;95.60;;;;;;5048614;28;20032;-65
2022/06/07 06:11:24;;;;;;;0.90;0.00;;;14.60;95.80;;;;;;5039868;28;20109;-64
2022/06/07 06:13:52;;;;;;;0.57;0.10;;;14.60;96.30;;;;;;5033250;28;20025;-65
2022/06/07 06:16:22;;;;;;;0.85;0.08;;;14.50;96.30;;;;;;5040379;28;20022;-65
2022/06/07 06:18:54;;;;;;;0.20;0.00;;;14.40;96.60;;;;;;5039564;28;20026;-65
2022/06/07 06:21:24;;;;;;;1.15;0.43;;;14.20;96.60;;;;;;5037282;28;20037;-66
2022/06/07 06:23:52;;;;;;;2.35;0.32;;;14.10;96.70;;;;;;5036572;28;20094;-64
2022/06/07 06:26:21;;;;;;;2.05;0.20;;;14.10;96.80;;;;;;5042801;28;20018;-64
2022/06/07 06:28:49;;;;;;;2.33;0.22;;;14.10;96.80;;;;;;5054862;28;20014;-64
2022/06/07 06:31:17;;;;;;;1.15;0.20;;;14.00;96.90;;;;;;5050336;28;20010;-64
2022/06/07 06:33:49;;;;;;;3.15;0.57;;;14.00;96.80;;;;;;5053065;28;20021;-65
2022/06/07 06:36:20;;;;;;;3.35;0.40;;;14.00;96.90;;;;;;5057879;28;20021;-65
2022/06/07 06:38:47;;;;;;;1.05;0.20;;;13.90;96.90;;;;;;5062443;28;20039;-65
2022/06/07 06:41:19;;;;;;;1.35;0.50;;;13.80;97.00;;;;;;5047842;28;20029;-64
2022/06/07 06:43:47;;;;;;;0.57;0.13;;;13.80;97.20;;;;;;5043078;28;20026;-64
2022/06/07 06:46:21;;;;;;;2.05;0.20;;;13.80;97.00;;;;;;5055151;28;20044;-64
2022/06/07 06:48:49;;;;;;;0.20;0.20;;;13.80;97.30;;;;;;5048396;28;20026;-65
2022/06/07 06:51:19;;;;;;;2.47;0.30;;;13.70;97.40;;;;;;5052699;28;20063;-64
2022/06/07 06:53:47;;;;;;;1.23;0.20;;;13.70;97.30;;;;;;5068020;28;20044;-64
2022/06/07 06:56:18;;;;;;;0.73;0.28;;;13.60;97.50;;;;;;5055126;28;20014;-65
2022/06/07 06:58:45;;;;;;;7.00;0.65;;;13.50;97.80;;;;;;5057484;28;20061;-65
2022/06/07 07:01:19;;;;;;;0.82;0.20;;;13.60;97.80;;;;;;5041526;28;20056;-64
2022/06/07 07:03:46;;;;;;;4.78;2.30;;;13.50;97.70;;;;;;5046265;28;20021;-65
2022/06/07 07:06:15;;;;;;;1.02;0.15;;;13.50;97.80;;;;;;5063362;28;20036;-64
2022/06/07 07:08:45;;;;;;;1.27;0.20;;;13.40;97.90;;;;;;5040217;28;20029;-65
2022/06/07 07:11:15;;;;;;;1.33;0.20;;;13.40;97.70;;;;;;5038127;28;20037;-64
2022/06/07 07:13:42;;;;;;;2.80;0.20;;;13.40;97.40;;;;;;5043681;28;20018;-65
2022/06/07 07:16:12;;;;;;;0.30;0.10;;;13.30;97.50;;;;;;5051314;28;20112;-65
2022/06/07 07:18:40;;;;;;;1.95;0.20;;;13.30;97.10;;;;;;5044337;28;20056;-65
2022/06/07 07:21:17;;;;;;;0.50;0.10;;;13.40;97.10;;;;;;5047323;28;20068;-65
2022/06/07 07:23:45;;;;;;;1.05;0.10;;;13.40;97.70;;;;;;5059645;28;20056;-66
2022/06/07 07:26:19;;;;;;;2.08;0.20;;;13.40;97.40;;;;;;5046004;28;20033;-65
2022/06/07 07:28:48;;;;;;;0.65;0.20;;;13.30;97.20;;;;;;5043696;28;20112;-65
2022/06/07 07:31:19;;;;;;;3.05;0.50;;;13.30;97.30;;;;;;5038045;28;20029;-65
2022/06/07 07:33:46;;;;;;;3.58;0.50;;;13.30;97.70;;;;;;5053461;28;20037;-65
2022/06/07 07:36:14;;;;;;;1.58;0.30;;;13.30;97.80;;;;;;5041232;28;20025;-64
2022/06/07 07:38:41;;;;;;;0.90;0.22;;;13.20;97.70;;;;;;5039617;28;20034;-65
2022/06/07 07:41:17;;;;;;;1.23;0.40;;;13.20;98.00;;;;;;5038242;28;20041;-65
2022/06/07 07:43:45;;;;;;;0.43;0.13;;;13.30;97.80;;;;;;5040067;28;20417;-66
2022/06/07 07:46:13;;;;;;;1.33;0.52;;;13.30;97.70;;;;;;5039441;28;20022;-67
2022/06/07 07:48:41;;;;;;;1.02;0.38;;;13.30;97.80;;;;;;5034506;28;20020;-65
2022/06/07 07:51:13;;;;;;;0.93;0.43;;;13.30;97.90;;;;;;5035742;28;20026;-66
2022/06/07 07:53:42;;;;;;;2.38;0.50;;;13.20;98.10;;;;;;5031884;28;20041;-66
2022/06/07 07:56:10;;;;;;;0.68;0.40;;;13.20;97.90;;;;;;5034272;28;20017;-67
2022/06/07 07:58:38;;;;;;;0.75;0.30;;;13.20;97.70;;;;;;5035030;28;20049;-65
2022/06/07 08:01:10;;;;;;;1.73;0.32;;;13.20;97.80;;;;;;5058083;28;20055;-65
2022/06/07 08:03:39;;;;;;;1.88;0.40;;;13.20;98.00;;;;;;5047716;28;20032;-65
2022/06/07 08:06:15;;;;;;;5.00;0.80;;;13.20;98.10;;;;;;5042205;28;20037;-66
2022/06/07 08:08:43;;;;;;;1.13;0.22;;;13.30;98.70;;;;;;5063820;28;20048;-65
2022/06/07 08:11:11;;;;;;;0.52;0.20;;;13.20;97.90;;;;;;5028644;28;20033;-66
2022/06/07 08:13:39;;;;;;;2.30;0.32;;;13.30;97.90;;;;;;5032276;28;20096;-66
2022/06/07 08:16:07;;;;;;;0.85;0.22;;;13.30;97.60;;;;;;5027383;28;20017;-65
2022/06/07 08:18:34;;;;;;;1.15;0.30;;;13.30;97.90;;;;;;5036986;28;20032;-65
2022/06/07 08:21:05;;;;;;;1.50;0.50;;;13.30;98.20;;;;;;5028205;28;20485;-65
2022/06/07 08:23:33;;;;;;;1.67;0.40;;;13.20;98.10;;;;;;5038746;28;20431;-66
2022/06/07 08:26:01;;;;;;;2.65;0.43;;;13.20;98.10;;;;;;5027827;28;20376;-65
2022/06/07 08:28:29;;;;;;;1.52;0.50;;;13.10;98.50;;;;;;5040581;28;21421;-65
2022/06/07 08:30:57;;;;;;;0.73;0.10;;;13.10;98.80;;;;;;5040437;28;20017;-66
2022/06/07 08:38:59;;;;;;;0.90;0.30;;;12.90;99.30;;;;;;5045972;28;20045;-65
2022/06/07 08:41:46;;;;;;;1.42;0.20;;;12.90;99.40;;;;;;5044270;28;21229;-65
2022/06/07 08:44:16;;;;;;;0.15;0.10;;;12.70;99.60;;;;;;5038743;28;20112;-66
2022/06/07 08:46:43;;;;;;;0.60;0.30;;;12.70;99.90;;;;;;5056400;28;20034;-66
2022/06/07 08:49:13;;;;;;;0.70;0.10;;;12.60;99.90;;;;;;5051590;28;20352;-66
2022/06/07 08:51:44;;;;;;;1.27;0.10;;;12.50;99.90;;;;;;5047751;28;20021;-66
2022/06/07 08:54:25;;;;;;;1.67;0.40;;;12.40;99.90;;;;;;5055359;28;20048;-66
2022/06/07 08:56:54;;;;;;;0.65;0.10;;;12.30;99.90;;;;;;5045563;28;20112;-66
2022/06/07 08:59:21;;;;;;;2.97;0.20;;;12.20;99.90;;;;;;5047938;28;20025;-65
2022/06/07 09:01:58;;;;;;;0.50;0.20;;;12.10;99.90;;;;;;5035645;28;20029;-65
2022/06/07 09:04:31;;;;;;;0.57;0.20;;;12.10;99.90;;;;;;5037226;28;20033;-67
2022/06/07 09:07:03;;;;;;;1.17;0.10;;;12.10;99.90;;;;;;5036236;28;20093;-65
2022/06/07 09:12:25;;;;;;;1.73;0.20;;;12.00;99.90;;;;;;5042601;28;20056;-65
2022/06/07 09:15:19;;;;;;;0.40;0.10;;;11.90;99.90;;;;;;5046136;28;20383;-65
2022/06/07 09:17:52;;;;;;;0.57;0.25;;;11.80;99.90;;;;;;5030633;28;20133;-66
2022/06/07 09:20:26;;;;;;;0.38;0.08;;;11.80;99.90;;;;;;5055068;28;20033;-66
2022/06/07 09:22:59;;;;;;;0.95;0.40;;;11.70;99.90;;;;;;5051683;28;20531;-65
2022/06/07 09:25:39;;;;;;;1.58;0.30;;;11.60;99.90;;;;;;5029416;28;20025;-66
2022/06/07 09:28:17;;;;;;;0.45;0.28;;;11.60;99.90;;;;;;5041314;28;20029;-66
2022/06/07 09:30:47;;;;;;;1.42;0.10;;;11.60;99.90;;;;;;5030977;28;20033;-66
2022/06/07 09:33:23;;;;;;;0.50;0.20;;;11.60;99.90;;;;;;5032422;28;20496;-66
2022/06/07 09:35:52;;;;;;;0.80;0.47;;;11.60;99.90;;;;;;5038359;28;20026;-65
2022/06/07 09:38:34;;;;;;;1.13;0.32;;;11.60;99.90;;;;;;5035372;28;20497;-65
2022/06/07 09:41:36;;;;;;;1.77;0.57;;;11.60;99.90;;;;;;5029446;28;20036;-66
2022/06/07 09:44:25;;;;;;;1.38;0.30;;;11.50;99.90;;;;;;5031776;28;20022;-65
2022/06/07 09:47:14;;;;;;;2.15;0.50;;;11.50;99.90;;;;;;5031978;28;20029;-65
2022/06/07 09:50:09;;;;;;;1.45;0.20;;;11.50;99.90;;;;;;5033717;28;20022;-66
2022/06/07 09:52:48;;;;;;;1.25;0.17;;;11.50;99.90;;;;;;5052718;28;20068;-66
2022/06/07 09:55:31;;;;;;;3.90;0.30;;;11.40;99.90;;;;;;5032342;28;20103;-66
2022/06/07 09:58:19;;;;;;;0.32;0.20;;;11.30;99.90;;;;;;5044236;28;20013;-65
2022/06/07 10:00:49;;;;;;;1.30;0.50;;;11.40;99.90;;;;;;5029262;28;20134;-66
2022/06/07 10:03:59;;;;;;;0.47;0.10;;;11.30;99.90;;;;;;5035370;28;20079;-65
2022/06/07 10:06:31;;;;;;;0.80;0.40;;;11.30;99.90;;;;;;5021845;28;20036;-66
2022/06/07 10:09:29;;;;;;;0.35;0.10;;;11.20;99.90;;;;;;5030035;28;20021;-66
2022/06/07 10:12:16;;;;;;;0.82;0.20;;;11.10;99.90;;;;;;5018388;28;20396;-66
2022/06/07 10:14:55;;;;;;;0.57;0.15;;;11.10;99.90;;;;;;5044719;28;20556;-65
2022/06/07 10:17:44;;;;;;;0.60;0.40;;;11.00;99.90;;;;;;5033954;28;20056;-65
2022/06/07 10:20:44;;;;;;;0.68;0.38;;;11.00;99.90;;;;;;5040203;28;20039;-66
2022/06/07 10:23:33;;;;;;;0.60;0.30;;;11.00;99.90;;;;;;5016399;28;20033;-66
2022/06/07 10:26:15;;;;;;;3.08;0.50;;;10.90;99.90;;;;;;5018142;28;20034;-65
2022/06/07 10:29:13;;;;;;;2.03;0.70;;;10.90;99.90;;;;;;5032110;28;20392;-66
2022/06/07 10:31:47;;;;;;;1.50;0.77;;;10.80;99.90;;;;;;5021250;28;20105;-66
2022/06/07 10:34:21;;;;;;;;;;;10.90;99.90;;;;;;5036734;28;20040;-66
2022/06/07 10:37:17;;;;;;;1.17;0.32;;;10.80;99.90;;;;;;5022815;28;19909;-65
2022/06/07 10:39:56;;;;;;;1.45;0.40;;;10.90;99.90;;;;;;5030782;28;20430;-65
2022/06/07 10:42:45;;;;;;;0.80;0.30;;;10.90;99.90;;;;;;5029945;28;20022;-66
2022/06/07 10:45:28;;;;;;;0.95;0.32;;;10.80;99.90;;;;;;5031142;28;20462;-65
2022/06/07 10:48:02;;;;;;;1.15;0.30;;;10.80;99.90;;;;;;5030439;28;20028;-66
2022/06/07 10:50:47;;;;;;;0.50;0.20;;;10.70;99.90;;;;;;5032273;28;20104;-65
2022/06/07 10:53:29;;;;;;;2.38;0.45;;;10.70;99.90;;;;;;5042455;28;20104;-65
2022/06/07 10:56:11;;;;;;;1.48;0.20;;;10.60;99.90;;;;;;5042373;28;20413;-66
2022/06/07 10:58:51;;;;;;;0.88;0.30;;;10.60;99.90;;;;;;5038458;28;20056;-66
2022/06/07 11:01:21;;;;;;;0.63;0.10;;;10.60;99.90;;;;;;5024028;28;20033;-66
2022/06/07 11:09:19;;;;;;;2.20;0.30;;;10.60;99.90;;;;;;5030277;28;20025;-66
2022/06/07 11:10:12;;;;;;;1.52;0.40;;;10.40;99.90;;;;;;5036231;28;20044;-66
2022/06/07 11:13:01;;;;;;;0.60;0.30;;;10.60;99.90;;;;;;5025671;28;20056;-66
2022/06/07 11:15:46;;;;;;;1.02;0.20;;;10.60;99.90;;;;;;5045159;28;20041;-66
2022/06/07 11:18:27;;;;;;;0.95;0.40;;;10.50;99.90;;;;;;5029991;28;20025;-65
2022/06/07 11:21:04;;;;;;;1.10;0.50;;;10.50;99.90;;;;;;5011534;28;20057;-65
2022/06/07 11:23:34;;;;;;;1.23;0.20;;;10.50;99.90;;;;;;5030266;28;20104;-65
2022/06/07 11:26:09;;;;;;;2.47;0.30;;;10.50;99.90;;;;;;5027691;28;20025;-66
2022/06/07 11:28:42;;;;;;;3.13;0.50;;;10.40;99.90;;;;;;5051928;28;20128;-66
2022/06/07 11:31:41;;;;;;;1.13;0.40;;;10.40;99.90;;;;;;5021379;28;20032;-66
2022/06/07 11:34:22;;;;;;;0.68;0.60;;;10.30;99.90;;;;;;5017698;28;20076;-67
2022/06/07 11:36:51;;;;;;;0.85;0.40;;;10.20;99.90;;;;;;5020395;28;20057;-66
2022/06/07 11:39:22;;;;;;;2.15;0.60;;;10.20;99.90;;;;;;5032781;28;20030;-65
2022/06/07 11:42:13;;;;;;;1.30;0.35;;;10.20;99.90;;;;;;5028753;28;20111;-66
2022/06/07 11:44:46;;;;;;;0.93;0.50;;;10.20;99.90;;;;;;5028522;28;20490;-65
2022/06/07 11:47:14;;;;;;;0.57;0.20;;;10.20;99.90;;;;;;5028494;28;20026;-65
2022/06/07 11:49:42;;;;;;;0.70;0.20;;;10.20;99.90;;;;;;5029228;28;20018;-65
2022/06/07 11:52:13;;;;;;;1.85;0.30;;;10.20;99.90;;;;;;5026317;28;20022;-65
2022/06/07 11:55:06;;;;;;;1.02;0.40;;;10.20;99.90;;;;;;5027388;28;20041;-66
2022/06/07 11:57:33;;;;;;;0.85;0.47;;;10.30;99.90;;;;;;5019947;28;21305;-65
2022/06/07 12:00:03;;;;;;;1.15;0.25;;;10.20;99.90;;;;;;5017004;28;20073;-65
2022/06/07 12:02:38;;;;;;;1.80;0.32;;;10.20;99.90;;;;;;5023668;28;20025;-65
2022/06/07 12:05:43;;;;;;;2.78;0.40;;;10.10;99.90;;;;;;5035274;28;20073;-66
2022/06/07 12:08:31;;;;;;;1.07;0.40;;;10.10;99.90;;;;;;5028046;28;20092;-65
2022/06/07 12:11:22;;;;;;;1.42;0.52;;;9.90;99.90;;;;;;5025967;28;20025;-65
2022/06/07 12:13:55;;;;;;;1.33;0.30;;;9.80;99.90;;;;;;5019102;28;20100;-65
2022/06/07 12:16:37;;;;;;;1.25;0.50;;;9.80;99.90;;;;;;5026380;28;21482;-65
2022/06/07 12:19:25;;;;;;;1.88;0.80;;;9.70;99.90;;;;;;5033399;28;20029;-65
2022/06/07 12:22:07;;;;;;;1.60;0.55;;;9.70;99.90;;;;;;5023186;28;20033;-65
2022/06/07 12:24:51;;;;;;;0.85;0.40;;;9.60;99.90;;;;;;5028588;28;20021;-65
2022/06/07 12:27:48;;;;;;;1.58;0.60;;;9.60;99.90;;;;;;5019018;28;20974;-64
2022/06/07 12:30:34;;;;;;;1.73;0.57;;;9.50;99.90;;;;;;5034203;28;20028;-65
2022/06/07 12:33:33;;;;;;;1.30;0.60;;;9.50;99.90;;;;;;5024356;28;20029;-65
2022/06/07 12:36:08;;;;;;;1.85;0.68;;;9.50;99.90;;;;;;5027110;28;20061;-64
2022/06/07 12:38:36;;;;;;;2.63;0.60;;;9.40;99.90;;;;;;5022033;28;20036;-65
2022/06/07 12:48:24;;;;;;;0.90;0.50;;;9.50;99.90;;;;;;5024635;28;20112;-66
2022/06/07 12:51:30;;;;;;;3.22;0.75;;;9.40;99.90;;;;;;5029911;28;20036;-65
2022/06/07 13:08:02;;;;;;;1.80;0.40;;;9.50;99.90;;;;;;5027224;28;20028;-65
2022/06/07 13:14:17;;;;;;;1.13;0.40;;;9.50;99.90;;;;;;5026405;28;20091;-65
2022/06/07 13:20:27;;;;;;;0.15;0.10;;;9.70;99.90;;;;;;5017340;28;20405;-65
2022/06/07 13:32:26;;;;;;;0.17;0.10;;;9.80;99.90;;;;;;5020071;28;20503;-65
2022/06/07 13:35:32;;;;;;;0.47;0.10;;;9.80;99.90;;;;;;5028516;28;20151;-65
2022/06/07 13:41:54;;;;;;;0.40;0.10;;;9.60;99.90;;;;;;5026587;28;20045;-65
2022/06/07 13:55:00;;;;;;;0.20;0.20;;;9.40;99.90;;;;;;5019422;28;20044;-66
2022/06/07 13:58:08;;;;;;;0.40;0.10;;;9.40;99.90;;;;;;5020287;28;20054;-65
2022/06/07 14:44:59;;;;;;;0.55;0.10;;;9.70;99.90;;;;;;5023337;28;20032;-65
2022/06/07 14:51:22;;;;;;;0.90;0.00;;;9.60;99.90;;;;;;5029457;28;20938;-65
2022/06/07 15:20:11;;;;;;;0.80;0.10;;;9.70;99.90;;;;;;5026579;28;20033;-65
2022/06/07 15:39:33;;;;;;;1.35;0.10;;;9.60;99.90;;;;;;5027213;28;20044;-65
2022/06/07 15:42:46;;;;;;;0.40;0.10;;;9.40;99.90;;;;;;5020055;28;20022;-65
2022/06/07 16:08:10;;;;;;;0.30;0.10;;;9.30;99.90;;;;;;5022802;28;20602;-65
2022/06/07 17:02:45;;;;;;;2.08;0.20;;;8.80;99.90;;;;;;5024412;28;20088;-65
2022/06/07 17:40:09;;;;;;;0.70;0.20;;;8.60;99.90;;;;;;5014717;28;20505;-66
2022/06/07 17:45:59;;;;;;;1.50;0.30;;;8.60;99.90;;;;;;5024874;28;20075;-66
2022/06/07 17:52:24;;;;;;;0.38;0.10;;;8.50;99.90;;;;;;5018160;28;20076;-65
2022/06/07 18:05:15;;;;;;;1.15;0.25;;;8.30;99.90;;;;;;5014992;28;20048;-65
2022/06/07 18:08:19;;;;;;;0.40;0.10;;;8.30;99.90;;;;;;5015685;28;20489;-65
2022/06/07 18:11:26;;;;;;;1.20;0.30;;;8.30;99.90;;;;;;5045959;28;20317;-65
2022/06/07 18:20:55;;;;;;;1.67;0.10;;;8.50;99.90;;;;;;5025398;28;20080;-65